Time;durP1;ratioP1;P1;durP2;ratioP2;P2;SDS_P1;SDS_P2;PMS_P1;PMS_P2;Temp;Humidity;BMP_temperature;BMP_pressure;BME280_temperature;BME280_humidity;BME280_pressure;Samples;Min_cycle;Max_cycle;Signal;HPM_P1;HPM_P2
2020/12/23 00:00:10;;;;;;;1.63;0.30;;;;;;;12.97;90.72;99402.16;2053646;78;20647;-80
2020/12/23 00:03:13;;;;;;;0.65;0.40;;;;;;;12.94;90.91;99403.94;2054718;78;20187;-79
2020/12/23 00:06:15;;;;;;;1.58;0.38;;;;;;;12.94;91.02;99409.16;2052571;78;20571;-78
2020/12/23 00:09:20;;;;;;;0.74;0.30;;;;;;;12.96;91.04;99407.38;2051539;78;20710;-77
2020/12/23 00:12:21;;;;;;;1.16;0.24;;;;;;;12.96;91.06;99403.03;2051731;78;20199;-77
2020/12/23 00:15:23;;;;;;;1.40;0.31;;;;;;;12.96;91.08;99402.19;2050665;78;20207;-77
2020/12/23 00:18:27;;;;;;;2.16;0.30;;;;;;;12.96;91.07;99396.97;2051188;78;20264;-77
2020/12/23 00:21:32;;;;;;;0.30;0.30;;;;;;;12.97;91.10;99404.75;2052839;78;20213;-77
2020/12/23 00:24:37;;;;;;;1.63;0.36;;;;;;;12.95;91.14;99408.28;2052705;78;20247;-78
2020/12/23 00:27:39;;;;;;;0.98;0.41;;;;;;;12.95;91.24;99406.53;2052364;78;20352;-79
2020/12/23 00:30:41;;;;;;;1.96;0.39;;;;;;;12.94;91.34;99397.00;2060359;78;20212;-81
2020/12/23 00:33:58;;;;;;;1.08;0.34;;;;;;;12.92;91.45;99392.66;2101524;68;20310;-80
2020/12/23 00:37:01;;;;;;;1.52;0.40;;;;;;;12.90;91.42;99397.88;2039693;79;20202;-81
2020/12/23 00:40:03;;;;;;;0.86;0.40;;;;;;;12.88;91.59;99384.03;2039617;79;20180;-80
2020/12/23 00:43:05;;;;;;;2.15;0.40;;;;;;;12.88;91.65;99389.22;2039163;79;20218;-79
2020/12/23 00:46:11;;;;;;;1.09;0.40;;;;;;;12.88;91.81;99385.75;2038103;79;20181;-79
2020/12/23 00:49:13;;;;;;;0.84;0.40;;;;;;;12.85;91.87;99386.69;2037494;79;20181;-79
2020/12/23 00:52:15;;;;;;;1.13;0.39;;;;;;;12.85;91.96;99384.06;2037475;79;20206;-79
2020/12/23 00:55:16;;;;;;;0.64;0.30;;;;;;;12.85;91.98;99381.47;2037856;79;20695;-79
2020/12/23 00:58:18;;;;;;;0.57;0.20;;;;;;;12.87;92.05;99386.66;2037850;79;21159;-79
2020/12/23 01:01:20;;;;;;;2.31;0.40;;;;;;;12.88;91.93;99396.19;2037092;79;20185;-78
2020/12/23 01:04:22;;;;;;;3.47;0.30;;;;;;;12.88;91.98;99383.16;2036221;79;20231;-79
2020/12/23 01:07:23;;;;;;;0.49;0.28;;;;;;;12.89;92.09;99384.88;2036952;79;20181;-79
2020/12/23 01:10:25;;;;;;;0.20;0.20;;;;;;;12.89;92.03;99383.13;2037133;79;20210;-80
2020/12/23 01:13:26;;;;;;;0.20;0.20;;;;;;;12.89;92.05;99377.06;2037894;79;20265;-80
2020/12/23 01:16:28;;;;;;;0.59;0.20;;;;;;;12.89;91.99;99377.06;2043305;79;20173;-80
2020/12/23 01:19:30;;;;;;;0.49;0.25;;;;;;;12.89;91.95;99382.28;2039551;79;20176;-80
2020/12/23 01:22:31;;;;;;;0.51;0.30;;;;;;;12.87;91.96;99381.44;2038713;79;20221;-81
2020/12/23 01:25:33;;;;;;;0.39;0.20;;;;;;;12.87;92.03;99386.66;2039068;79;20427;-78
2020/12/23 01:28:35;;;;;;;0.88;0.30;;;;;;;12.87;92.15;99382.31;2041608;79;20196;-80
2020/12/23 01:31:40;;;;;;;1.04;0.30;;;;;;;12.89;92.13;99382.28;2039987;79;20246;-79
2020/12/23 01:34:42;;;;;;;0.34;0.20;;;;;;;12.89;92.11;99375.31;2037986;79;20246;-80
2020/12/23 01:37:43;;;;;;;1.13;0.30;;;;;;;12.90;92.11;99373.56;2038288;79;20203;-80
2020/12/23 01:40:45;;;;;;;0.73;0.29;;;;;;;12.89;92.04;99382.28;2037351;79;20246;-79
2020/12/23 01:43:55;;;;;;;1.90;0.34;;;;;;;12.87;92.04;99377.09;2039734;79;20285;-80
2020/12/23 01:46:58;;;;;;;0.89;0.29;;;;;;;12.88;92.12;99381.41;2039548;79;20202;-81
2020/12/23 01:50:00;;;;;;;0.71;0.35;;;;;;;12.87;92.16;99379.69;2043732;79;20987;-80
2020/12/23 01:53:02;;;;;;;0.50;0.20;;;;;;;12.87;92.16;99371.00;2041302;79;20177;-80
2020/12/23 01:56:05;;;;;;;1.25;0.30;;;;;;;12.87;92.25;99376.22;2039737;79;20185;-80
2020/12/23 01:59:07;;;;;;;2.17;0.20;;;;;;;12.86;92.14;99390.13;2040329;79;20597;-79
2020/12/23 02:02:33;;;;;;;1.66;0.30;;;;;;;12.85;92.35;99373.66;2036633;79;21054;-78
2020/12/23 02:05:38;;;;;;;0.35;0.20;;;;;;;12.86;92.39;99366.69;2033730;79;20899;-79
2020/12/23 02:08:44;;;;;;;1.81;0.17;;;;;;;12.85;92.34;99372.78;2037104;79;20870;-80
2020/12/23 02:11:46;;;;;;;3.28;0.28;;;;;;;12.86;92.38;99380.56;2045511;79;20275;-79
2020/12/23 02:14:49;;;;;;;0.38;0.20;;;;;;;12.86;92.38;99371.91;2036539;79;20209;-79
2020/12/23 02:17:51;;;;;;;0.30;0.28;;;;;;;12.88;92.33;99359.72;2036423;79;20209;-79
2020/12/23 02:20:52;;;;;;;0.32;0.20;;;;;;;12.89;92.38;99354.47;2036812;79;20197;-80
2020/12/23 02:23:54;;;;;;;0.40;0.10;;;;;;;12.90;92.32;99357.94;2037078;79;20634;-79
2020/12/23 02:26:56;;;;;;;1.98;0.28;;;;;;;12.87;92.25;99353.63;2036993;79;20247;-79
2020/12/23 02:29:59;;;;;;;0.10;0.10;;;;;;;12.87;92.29;99353.63;2037600;79;20401;-79
2020/12/23 02:33:00;;;;;;;0.96;0.40;;;;;;;12.85;92.34;99362.38;2036419;79;20201;-80
2020/12/23 02:36:02;;;;;;;0.15;0.15;;;;;;;12.84;92.50;99358.91;2037673;79;20209;-79
2020/12/23 02:39:04;;;;;;;2.19;0.10;;;;;;;12.83;92.46;99348.50;2040458;79;20622;-79
2020/12/23 02:42:07;;;;;;;0.30;0.10;;;;;;;12.83;92.48;99353.72;2037609;79;20640;-79
2020/12/23 02:45:09;;;;;;;1.11;0.10;;;;;;;12.82;92.44;99344.16;2037870;79;20200;-78
2020/12/23 02:48:11;;;;;;;2.16;0.11;;;;;;;12.81;92.45;99345.06;2037896;79;20754;-79
2020/12/23 02:51:13;;;;;;;1.85;0.10;;;;;;;12.81;92.49;99339.84;2037313;79;20827;-79
2020/12/23 02:54:15;;;;;;;0.40;0.20;;;;;;;12.80;92.45;99325.09;2037720;79;20192;-79
2020/12/23 02:57:17;;;;;;;0.50;0.10;;;;;;;12.80;92.37;99322.50;2038027;79;20840;-79
2020/12/23 03:00:18;;;;;;;0.34;0.10;;;;;;;12.77;92.39;99307.78;2038126;79;20197;-78
2020/12/23 03:03:20;;;;;;;0.10;0.10;;;;;;;12.75;92.30;99304.31;2038188;79;20181;-78
2020/12/23 03:06:21;;;;;;;2.17;0.15;;;;;;;12.74;92.44;99313.00;2043670;79;20634;-81
2020/12/23 03:09:23;;;;;;;1.02;0.10;;;;;;;12.71;92.54;99300.88;2044571;79;20387;-79
2020/12/23 03:12:25;;;;;;;0.38;0.10;;;;;;;12.70;92.52;99283.53;2038785;79;20201;-80
2020/12/23 03:15:27;;;;;;;1.95;0.10;;;;;;;12.69;92.51;99279.19;2038801;79;20210;-79
2020/12/23 03:18:28;;;;;;;0.51;0.10;;;;;;;12.70;92.44;99274.84;2038005;79;20298;-79
2020/12/23 03:21:30;;;;;;;0.26;0.10;;;;;;;12.68;92.37;99277.47;2037713;79;20185;-79
2020/12/23 03:24:32;;;;;;;1.44;0.00;;;;;;;12.66;92.43;99283.59;2036520;79;20289;-79
2020/12/23 03:27:34;;;;;;;0.11;0.10;;;;;;;12.65;92.60;99280.13;2036576;79;20197;-80
2020/12/23 03:30:35;;;;;;;1.60;0.10;;;;;;;12.66;92.60;99286.22;2038128;79;20184;-79
2020/12/23 03:33:37;;;;;;;0.10;0.00;;;;;;;12.65;92.64;99284.50;2037314;79;20258;-78
2020/12/23 03:36:39;;;;;;;1.29;0.13;;;;;;;12.65;92.73;99287.09;2036779;79;20242;-78
2020/12/23 03:39:41;;;;;;;0.38;0.20;;;;;;;12.65;92.72;99280.13;2038945;79;20564;-78
2020/12/23 03:42:42;;;;;;;0.31;0.10;;;;;;;12.65;92.72;99284.50;2040095;79;20238;-78
2020/12/23 03:45:44;;;;;;;0.43;0.10;;;;;;;12.66;92.76;99273.19;2038258;79;20185;-79
2020/12/23 03:48:46;;;;;;;0.11;0.10;;;;;;;12.66;92.74;99276.66;2040124;79;20649;-79
2020/12/23 03:51:48;;;;;;;2.66;0.20;;;;;;;12.68;92.80;99274.03;2038460;79;20215;-80
2020/12/23 03:54:49;;;;;;;0.71;0.20;;;;;;;12.68;92.81;99259.25;2038302;79;20203;-80
2020/12/23 03:57:51;;;;;;;0.10;0.10;;;;;;;12.69;92.86;99263.56;2038640;79;20205;-79
2020/12/23 04:00:53;;;;;;;0.31;0.19;;;;;;;12.70;92.80;99254.00;2038413;79;20217;-79
2020/12/23 04:03:54;;;;;;;1.23;0.20;;;;;;;12.70;92.79;99246.19;2037174;79;20220;-79
2020/12/23 04:06:56;;;;;;;0.54;0.29;;;;;;;12.69;92.88;99241.88;2037987;79;20199;-79
2020/12/23 04:09:58;;;;;;;0.96;0.30;;;;;;;12.68;92.86;99230.59;2037915;79;20233;-79
2020/12/23 04:13:00;;;;;;;3.80;0.30;;;;;;;12.67;92.85;99239.28;2037328;79;20177;-79
2020/12/23 04:16:01;;;;;;;4.39;1.38;;;;;;;12.66;92.93;99247.13;2038852;79;20165;-79
2020/12/23 04:19:03;;;;;;;1.34;0.88;;;;;;;12.64;93.11;99244.56;2036643;79;20181;-78
2020/12/23 04:22:05;;;;;;;2.24;0.40;;;;;;;12.63;93.22;99247.19;2036549;79;20214;-78
2020/12/23 04:25:07;;;;;;;1.06;0.34;;;;;;;12.62;93.22;99242.88;2036925;79;20219;-78
2020/12/23 04:28:09;;;;;;;0.96;0.30;;;;;;;12.61;93.30;99247.22;2036764;79;20660;-78
2020/12/23 04:31:11;;;;;;;2.28;0.22;;;;;;;12.62;93.44;99240.25;2036664;79;20820;-79
2020/12/23 04:34:13;;;;;;;1.49;0.32;;;;;;;12.63;93.56;99240.22;2039484;79;20230;-80
2020/12/23 04:37:15;;;;;;;2.72;0.20;;;;;;;12.63;93.55;99240.22;2039833;79;20188;-78
2020/12/23 04:40:16;;;;;;;2.46;0.20;;;;;;;12.62;93.64;99238.50;2036348;79;20249;-78
2020/12/23 04:43:19;;;;;;;0.74;0.30;;;;;;;12.64;93.76;99247.16;2036513;79;20185;-78
2020/12/23 04:46:29;;;;;;;0.24;0.24;;;;;;;12.63;93.77;99242.84;2037150;79;20192;-78
2020/12/23 04:49:36;;;;;;;0.21;0.20;;;;;;;12.63;93.89;99244.59;2036782;79;20193;-78
2020/12/23 04:52:37;;;;;;;1.74;0.22;;;;;;;12.63;93.86;99241.97;2038805;79;20696;-80
2020/12/23 04:55:41;;;;;;;0.91;0.24;;;;;;;12.63;93.87;99241.97;2041037;79;20193;-80
2020/12/23 04:58:42;;;;;;;0.79;0.30;;;;;;;12.62;93.92;99238.50;2042065;79;20239;-80
2020/12/23 05:01:44;;;;;;;0.93;0.20;;;;;;;12.63;93.90;99231.56;2040194;79;20732;-80
2020/12/23 05:04:46;;;;;;;2.05;0.30;;;;;;;12.63;93.95;99235.03;2042974;79;20200;-82
2020/12/23 05:07:47;;;;;;;0.74;0.22;;;;;;;12.64;93.98;99228.94;2038212;79;20181;-79
2020/12/23 05:10:49;;;;;;;0.34;0.20;;;;;;;12.62;93.88;99220.28;2043949;79;20230;-81
2020/12/23 05:13:52;;;;;;;1.05;0.20;;;;;;;12.63;94.03;99214.19;2041014;79;20218;-81
2020/12/23 05:16:55;;;;;;;0.94;0.20;;;;;;;12.65;93.97;99224.56;2042680;79;20711;-80
2020/12/23 05:19:57;;;;;;;0.98;0.20;;;;;;;12.65;93.99;99215.00;2042021;79;20196;-81
2020/12/23 05:22:59;;;;;;;1.09;0.30;;;;;;;12.66;93.93;99214.13;2039807;79;20177;-82
2020/12/23 05:26:04;;;;;;;2.00;0.25;;;;;;;12.66;93.86;99213.28;2040453;79;20177;-80
2020/12/23 05:29:06;;;;;;;0.47;0.40;;;;;;;12.66;93.79;99201.09;2041957;79;20226;-80
2020/12/23 05:32:10;;;;;;;0.30;0.30;;;;;;;12.65;93.75;99204.59;2042371;79;20295;-81
2020/12/23 05:35:14;;;;;;;1.15;0.20;;;;;;;12.65;93.81;99202.00;2043819;79;20230;-80
2020/12/23 05:38:19;;;;;;;1.27;0.30;;;;;;;12.68;93.88;99193.25;2045577;79;20205;-80
2020/12/23 05:41:21;;;;;;;1.21;0.41;;;;;;;12.69;93.77;99189.78;2045456;79;20172;-80
2020/12/23 05:44:22;;;;;;;0.50;0.30;;;;;;;12.68;93.61;99168.06;2043036;79;20181;-81
2020/12/23 05:47:26;;;;;;;1.00;0.38;;;;;;;12.65;93.32;99180.28;2042969;79;20646;-80
2020/12/23 05:50:28;;;;;;;0.40;0.40;;;;;;;12.60;93.25;99185.59;2044507;79;20214;-80
2020/12/23 05:53:35;;;;;;;0.76;0.50;;;;;;;12.59;93.44;99186.47;2044717;79;20185;-80
2020/12/23 05:56:42;;;;;;;1.80;0.40;;;;;;;12.58;93.41;99187.34;2042785;79;20215;-80
2020/12/23 05:59:44;;;;;;;0.30;0.30;;;;;;;12.59;93.45;99190.81;2040740;79;20197;-79
2020/12/23 06:03:19;;;;;;;0.60;0.60;;;;;;;12.60;93.51;99187.31;2041465;79;20660;-80
2020/12/23 06:06:23;;;;;;;2.08;0.40;;;;;;;12.60;93.31;99189.94;2040628;79;20906;-80
2020/12/23 06:09:35;;;;;;;0.66;0.50;;;;;;;12.59;93.27;99186.47;2040761;79;21050;-80
2020/12/23 06:12:44;;;;;;;2.01;0.70;;;;;;;12.60;93.25;99182.97;2039231;79;20214;-80
2020/12/23 06:15:57;;;;;;;1.66;0.82;;;;;;;12.59;93.04;99178.66;2040445;79;20206;-80
2020/12/23 06:19:03;;;;;;;2.91;0.94;;;;;;;12.56;92.81;99181.28;2040509;79;20200;-80
2020/12/23 06:22:09;;;;;;;3.85;1.00;;;;;;;12.55;92.85;99184.78;2039093;79;20230;-80
2020/12/23 06:25:12;;;;;;;1.30;1.20;;;;;;;12.56;92.82;99183.03;2039255;79;20748;-80
2020/12/23 06:28:21;;;;;;;2.75;1.60;;;;;;;12.52;92.63;99190.03;2042443;79;20167;-84
2020/12/23 06:31:27;;;;;;;1.40;1.30;;;;;;;12.49;92.63;99181.41;2054184;79;20245;-85
2020/12/23 06:34:31;;;;;;;4.49;1.71;;;;;;;12.46;92.44;99173.66;2052651;79;20198;-84
2020/12/23 06:37:51;;;;;;;3.90;1.48;;;;;;;12.40;92.29;99170.28;2051472;79;20179;-85
2020/12/23 06:40:57;;;;;;;2.71;1.77;;;;;;;12.36;92.38;99176.38;2053551;79;20305;-84
2020/12/23 06:44:01;;;;;;;2.71;1.80;;;;;;;12.32;92.27;99173.84;2043404;79;20283;-80
2020/12/23 06:47:03;;;;;;;4.43;2.08;;;;;;;12.29;92.23;99169.56;2047690;79;20214;-82
2020/12/23 06:50:06;;;;;;;1.81;1.69;;;;;;;12.25;92.10;99165.28;2047485;79;20200;-81
2020/12/23 06:53:08;;;;;;;4.53;1.69;;;;;;;12.22;92.14;99170.56;2049068;79;20560;-82
2020/12/23 06:56:45;;;;;;;2.49;1.66;;;;;;;12.19;92.11;99160.16;2045737;79;20586;-78
2020/12/23 06:59:46;;;;;;;2.03;1.49;;;;;;;12.18;91.98;99160.19;2047871;79;20918;-79
2020/12/23 07:03:08;;;;;;;1.99;1.45;;;;;;;12.13;91.65;99164.59;2041133;79;20463;-79
2020/12/23 07:06:30;;;;;;;5.70;1.58;;;;;;;12.11;91.82;99167.22;2038843;79;20181;-79
2020/12/23 07:09:32;;;;;;;4.81;1.54;;;;;;;12.12;91.77;99166.34;2040827;79;20221;-79
2020/12/23 07:12:37;;;;;;;3.88;1.60;;;;;;;12.13;91.49;99169.81;2038229;79;20215;-78
2020/12/23 07:15:55;;;;;;;2.29;1.49;;;;;;;12.05;91.16;99170.78;2039338;79;20209;-83
2020/12/23 07:18:58;;;;;;;3.90;1.84;;;;;;;12.02;91.10;99172.53;2045646;79;20219;-81
2020/12/23 07:21:59;;;;;;;2.25;1.85;;;;;;;12.00;90.93;99174.31;2041541;79;20206;-78
2020/12/23 07:25:02;;;;;;;1.85;1.74;;;;;;;11.97;90.81;99174.34;2039012;79;20189;-81
2020/12/23 07:28:06;;;;;;;2.39;1.50;;;;;;;11.96;90.66;99176.09;2044813;79;20209;-81
2020/12/23 07:31:11;;;;;;;5.03;1.58;;;;;;;11.96;90.59;99176.09;2046008;79;20641;-79
2020/12/23 07:34:12;;;;;;;1.89;1.44;;;;;;;11.93;90.41;99175.28;2040219;79;20193;-82
2020/12/23 07:37:14;;;;;;;2.96;1.60;;;;;;;11.89;90.26;99176.22;2042848;79;20327;-79
2020/12/23 07:40:16;;;;;;;2.11;1.49;;;;;;;11.85;90.17;99174.50;2036651;79;20181;-76
2020/12/23 07:43:19;;;;;;;3.00;1.66;;;;;;;11.86;90.39;99186.66;2040429;79;20609;-79
2020/12/23 07:46:23;;;;;;;1.96;1.61;;;;;;;11.86;90.16;99171.06;2039979;79;20600;-80
2020/12/23 07:49:27;;;;;;;2.33;1.49;;;;;;;11.85;90.13;99175.41;2044244;79;20215;-82
2020/12/23 07:52:29;;;;;;;1.85;1.49;;;;;;;11.80;89.89;99177.19;2043244;79;20199;-81
2020/12/23 07:55:30;;;;;;;3.24;1.50;;;;;;;11.82;90.04;99179.75;2043414;79;20282;-83
2020/12/23 07:58:36;;;;;;;4.25;1.51;;;;;;;11.81;89.94;99178.91;2049641;79;20173;-84
2020/12/23 08:01:41;;;;;;;1.33;1.23;;;;;;;11.79;89.74;99167.66;2051049;79;20195;-83
2020/12/23 08:04:43;;;;;;;2.42;1.36;;;;;;;11.76;89.84;99165.94;2053020;79;20193;-81
2020/12/23 08:07:46;;;;;;;2.61;1.60;;;;;;;11.78;89.93;99171.09;2050841;79;20855;-82
2020/12/23 08:10:49;;;;;;;2.50;1.83;;;;;;;11.73;89.74;99170.31;2049398;79;20790;-82
2020/12/23 08:13:55;;;;;;;2.67;1.89;;;;;;;11.72;89.88;99171.19;2051218;79;20247;-84
2020/12/23 08:16:58;;;;;;;1.69;1.55;;;;;;;11.70;89.88;99167.75;2051610;79;20293;-81
2020/12/23 08:20:02;;;;;;;3.95;1.73;;;;;;;11.68;89.99;99162.56;2049778;79;20169;-83
2020/12/23 08:23:04;;;;;;;2.00;1.73;;;;;;;11.67;89.99;99163.47;2051401;79;20201;-87
2020/12/23 08:26:08;;;;;;;2.75;1.73;;;;;;;11.67;90.15;99152.16;2052393;79;20907;-82
2020/12/23 08:29:11;;;;;;;1.74;1.54;;;;;;;11.68;90.14;99164.31;2046902;79;20279;-82
2020/12/23 08:32:18;;;;;;;2.13;1.42;;;;;;;11.70;90.25;99153.00;2048138;79;20423;-82
2020/12/23 08:35:28;;;;;;;4.09;1.86;;;;;;;11.68;90.09;99148.72;2042102;79;20984;-80
2020/12/23 08:38:30;;;;;;;3.38;1.23;;;;;;;11.68;90.15;99140.91;2037405;79;20213;-79
2020/12/23 08:41:31;;;;;;;1.54;1.38;;;;;;;11.68;90.37;99138.31;2037212;79;20581;-80
2020/12/23 08:44:34;;;;;;;1.71;1.30;;;;;;;11.70;90.20;99131.34;2039321;79;20207;-81
2020/12/23 08:47:35;;;;;;;1.56;1.46;;;;;;;11.72;90.24;99126.97;2044380;79;20768;-82
2020/12/23 08:50:40;;;;;;;2.39;1.27;;;;;;;11.74;90.37;99127.81;2051041;79;20327;-83
2020/12/23 08:53:52;;;;;;;2.61;1.20;;;;;;;11.75;90.30;99122.59;2050001;79;20202;-83
2020/12/23 08:56:59;;;;;;;2.15;1.20;;;;;;;11.79;90.23;99128.63;2050703;79;20677;-83
2020/12/23 09:00:05;;;;;;;1.89;1.50;;;;;;;11.82;90.13;99125.13;2051843;79;20787;-84
2020/12/23 09:03:19;;;;;;;1.79;1.56;;;;;;;11.79;90.05;99113.88;2048224;79;20814;-81
2020/12/23 09:06:23;;;;;;;2.38;1.79;;;;;;;11.80;90.15;99115.59;2044982;79;20194;-81
2020/12/23 09:09:30;;;;;;;3.31;1.63;;;;;;;11.82;90.10;99115.59;2038935;79;20204;-80
2020/12/23 09:12:36;;;;;;;1.91;1.44;;;;;;;11.82;89.89;99125.13;2039138;79;20474;-80
2020/12/23 09:15:41;;;;;;;1.66;1.56;;;;;;;11.79;89.99;99124.28;2040544;79;20196;-82
2020/12/23 09:18:50;;;;;;;3.42;1.92;;;;;;;11.81;89.87;99121.66;2039878;79;20627;-80
2020/12/23 09:21:55;;;;;;;3.21;1.52;;;;;;;11.80;89.78;99120.81;2040047;79;20184;-80
2020/12/23 09:25:17;;;;;;;1.88;1.71;;;;;;;11.80;89.72;99132.97;2040932;79;20198;-79
2020/12/23 09:28:20;;;;;;;2.14;1.38;;;;;;;11.81;89.77;99126.88;2039891;79;20199;-80
2020/12/23 09:31:22;;;;;;;2.96;1.60;;;;;;;11.85;89.73;99133.78;2039774;79;20685;-80
2020/12/23 09:34:23;;;;;;;1.80;1.34;;;;;;;11.87;89.52;99131.16;2036834;79;21264;-80
2020/12/23 09:37:29;;;;;;;2.72;1.70;;;;;;;11.89;89.41;99134.59;2037516;79;20208;-80
2020/12/23 09:40:31;;;;;;;6.54;1.41;;;;;;;11.91;89.29;99141.50;2039779;79;20203;-79
2020/12/23 09:43:36;;;;;;;2.47;1.30;;;;;;;11.87;89.32;99125.94;2038052;79;20189;-79
2020/12/23 09:46:38;;;;;;;2.06;1.38;;;;;;;11.90;89.37;99125.91;2040249;79;20283;-80
2020/12/23 09:49:40;;;;;;;2.67;1.90;;;;;;;11.89;89.17;99121.59;2044590;79;20219;-79
2020/12/23 09:52:42;;;;;;;1.48;1.34;;;;;;;11.86;88.89;99119.03;2039191;79;20210;-80
2020/12/23 09:55:44;;;;;;;2.09;1.51;;;;;;;11.84;88.78;99116.41;2043156;79;20177;-81
2020/12/23 09:58:45;;;;;;;3.71;1.64;;;;;;;11.85;88.90;99114.69;2039388;79;20653;-79
2020/12/23 10:01:47;;;;;;;1.38;1.26;;;;;;;11.86;88.55;99114.69;2041525;79;20196;-80
2020/12/23 10:04:49;;;;;;;2.54;1.11;;;;;;;11.88;88.13;99119.88;2041930;79;20250;-80
2020/12/23 10:07:51;;;;;;;2.19;1.30;;;;;;;11.90;88.25;99116.34;2044587;79;20157;-81
2020/12/23 10:10:52;;;;;;;2.54;1.30;;;;;;;11.90;88.35;99112.91;2043840;79;20195;-80
2020/12/23 10:13:55;;;;;;;1.64;1.54;;;;;;;11.88;88.47;99101.66;2043555;79;20205;-80
2020/12/23 10:16:57;;;;;;;1.77;1.58;;;;;;;11.86;88.42;99099.06;2043941;79;20218;-80
2020/12/23 10:19:59;;;;;;;1.48;1.38;;;;;;;11.85;88.40;99099.97;2040197;79;20941;-80
2020/12/23 10:23:01;;;;;;;3.67;1.52;;;;;;;11.85;88.41;99091.25;2042420;79;20161;-81
2020/12/23 10:26:02;;;;;;;2.25;1.33;;;;;;;11.85;88.45;99080.84;2045430;79;20204;-82
2020/12/23 10:29:05;;;;;;;2.44;1.20;;;;;;;11.88;88.38;99088.66;2044266;79;20211;-81
2020/12/23 10:32:06;;;;;;;2.24;1.17;;;;;;;11.89;88.11;99079.97;2046358;79;20680;-81
2020/12/23 10:35:08;;;;;;;1.33;1.23;;;;;;;11.88;87.95;99080.84;2044756;79;20471;-80
2020/12/23 10:38:10;;;;;;;4.54;1.13;;;;;;;11.85;87.46;99068.75;2042932;79;20193;-80
2020/12/23 10:41:17;;;;;;;1.98;1.20;;;;;;;11.85;87.32;99060.94;2041758;79;20192;-81
2020/12/23 10:44:23;;;;;;;2.40;1.27;;;;;;;11.80;86.87;99053.19;2043806;79;20189;-80
2020/12/23 10:47:25;;;;;;;1.70;1.26;;;;;;;11.82;87.05;99052.28;2045067;79;20711;-80
2020/12/23 10:50:27;;;;;;;2.99;1.27;;;;;;;11.79;86.88;99046.25;2045595;79;21026;-81
2020/12/23 10:53:29;;;;;;;1.21;0.90;;;;;;;11.81;87.00;99041.03;2041626;79;20480;-80
2020/12/23 10:56:30;;;;;;;1.10;1.00;;;;;;;11.82;86.95;99037.53;2040562;79;20219;-80
2020/12/23 10:59:32;;;;;;;1.89;1.00;;;;;;;11.84;87.08;99034.91;2043536;79;20214;-80
2020/12/23 11:02:33;;;;;;;1.19;1.01;;;;;;;11.84;87.02;99034.91;2041524;79;20892;-80
2020/12/23 11:05:35;;;;;;;1.20;0.93;;;;;;;11.82;87.14;99026.28;2042071;79;20197;-80
2020/12/23 11:08:37;;;;;;;1.56;1.23;;;;;;;11.84;87.04;99020.16;2041350;79;20170;-80
2020/12/23 11:11:38;;;;;;;1.67;1.25;;;;;;;11.85;86.81;99008.91;2039721;79;20262;-80
2020/12/23 11:14:40;;;;;;;1.84;0.95;;;;;;;11.88;86.76;99014.06;2039781;79;20743;-80
2020/12/23 11:17:44;;;;;;;1.79;1.13;;;;;;;11.89;86.72;99004.50;2040321;79;20753;-80
2020/12/23 11:20:46;;;;;;;1.01;0.94;;;;;;;11.87;86.89;98990.66;2046084;79;20205;-81
2020/12/23 11:23:48;;;;;;;1.13;1.00;;;;;;;11.85;87.13;98995.91;2044332;79;20743;-81
2020/12/23 11:26:50;;;;;;;1.27;1.17;;;;;;;11.83;87.21;98984.63;2052712;79;20622;-81
2020/12/23 11:29:53;;;;;;;0.96;0.90;;;;;;;11.84;87.43;98982.88;2049845;79;20231;-81
2020/12/23 11:32:57;;;;;;;4.76;1.76;;;;;;;11.84;87.62;98978.53;2046995;79;20177;-81
2020/12/23 11:35:59;;;;;;;2.41;1.13;;;;;;;11.80;87.73;98980.34;2039752;79;20860;-81
2020/12/23 11:39:02;;;;;;;1.42;1.01;;;;;;;11.76;87.92;98978.66;2046810;79;20190;-82
2020/12/23 11:42:05;;;;;;;1.34;1.14;;;;;;;11.72;88.15;98976.13;2050532;79;20188;-83
2020/12/23 11:45:12;;;;;;;1.76;1.00;;;;;;;11.70;88.37;98973.56;2050453;79;20207;-82
2020/12/23 11:48:15;;;;;;;1.09;0.99;;;;;;;11.69;88.55;98963.19;2052037;79;20257;-80
2020/12/23 11:51:18;;;;;;;1.51;1.15;;;;;;;11.67;88.72;98963.19;2046907;79;20149;-83
2020/12/23 11:54:20;;;;;;;2.49;1.01;;;;;;;11.66;88.90;98958.00;2051429;79;20241;-82
2020/12/23 11:57:25;;;;;;;2.96;1.05;;;;;;;11.62;88.92;98956.34;2049904;79;20177;-85
2020/12/23 12:00:32;;;;;;;4.39;1.20;;;;;;;11.57;89.13;98940.81;2046320;79;20657;-81
2020/12/23 12:03:38;;;;;;;1.02;1.00;;;;;;;11.57;89.31;98929.56;2126557;68;20235;-84
2020/12/23 12:06:46;;;;;;;4.75;1.05;;;;;;;11.56;89.46;98933.91;2040202;79;20238;-83
2020/12/23 12:09:52;;;;;;;1.66;0.90;;;;;;;11.55;89.46;98937.38;2041073;79;20212;-82
2020/12/23 12:12:55;;;;;;;1.36;0.90;;;;;;;11.56;89.50;98925.25;2039681;79;20554;-84
2020/12/23 12:15:58;;;;;;;1.98;0.99;;;;;;;11.53;89.53;98920.09;2039270;79;20232;-82
2020/12/23 12:19:01;;;;;;;0.88;0.88;;;;;;;11.50;89.74;98918.41;2041491;79;20186;-81
2020/12/23 12:22:03;;;;;;;0.77;0.77;;;;;;;11.50;89.82;98931.41;2039749;79;20221;-83
2020/12/23 12:25:07;;;;;;;1.73;0.80;;;;;;;11.49;89.84;98938.34;2038206;79;20223;-81
2020/12/23 12:28:10;;;;;;;1.27;0.90;;;;;;;11.49;89.85;98932.28;2037021;79;20206;-82
2020/12/23 12:31:17;;;;;;;3.33;0.96;;;;;;;11.49;89.82;98929.69;2039000;79;20196;-82
2020/12/23 12:34:19;;;;;;;2.50;0.80;;;;;;;11.46;89.89;98920.16;2043302;79;20228;-81
2020/12/23 12:37:25;;;;;;;4.99;0.79;;;;;;;11.45;89.92;98915.00;2039389;79;20676;-83
2020/12/23 12:40:32;;;;;;;2.66;1.02;;;;;;;11.45;89.82;98904.59;2039215;79;20163;-88
2020/12/23 12:43:39;;;;;;;0.82;0.80;;;;;;;11.46;89.82;98888.97;2043756;79;20224;-83
2020/12/23 12:50:03;;;;;;;0.71;0.68;;;;;;;11.47;89.72;98895.03;2108908;69;20199;-82
2020/12/23 12:53:06;;;;;;;2.14;0.64;;;;;;;11.48;89.73;98895.00;2025948;80;20328;-80
2020/12/23 12:56:08;;;;;;;2.04;1.20;;;;;;;11.48;89.91;98887.19;2028007;80;20179;-82
2020/12/23 12:59:13;;;;;;;1.91;1.49;;;;;;;11.43;89.67;98889.03;2035992;80;20581;-83
2020/12/23 13:02:16;;;;;;;1.25;1.10;;;;;;;11.46;89.76;98888.13;2038854;80;20170;-86
2020/12/23 13:05:20;;;;;;;0.86;0.75;;;;;;;11.35;89.71;98882.25;2038044;80;20185;-86
2020/12/23 13:08:22;;;;;;;1.17;0.90;;;;;;;11.37;89.95;98896.06;2032001;80;20285;-83
2020/12/23 13:11:27;;;;;;;1.24;1.00;;;;;;;11.35;89.83;98890.03;2037737;80;20179;-84
2020/12/23 13:14:31;;;;;;;1.49;1.00;;;;;;;11.35;89.89;98888.31;2045657;80;20561;-85
2020/12/23 13:17:36;;;;;;;2.00;0.86;;;;;;;11.37;89.90;98876.13;2037253;80;20215;-84
2020/12/23 13:20:40;;;;;;;1.42;0.90;;;;;;;11.37;89.67;98870.94;2037030;80;20180;-86
2020/12/23 13:27:04;;;;;;;1.24;1.00;;;;;;;11.34;89.55;98881.38;2225983;69;20421;-86
2020/12/23 13:30:09;;;;;;;2.58;0.93;;;;;;;11.31;89.54;98886.63;2028436;80;20163;-84
2020/12/23 13:33:11;;;;;;;3.00;0.95;;;;;;;11.31;89.62;98884.03;2033404;80;20266;-84
2020/12/23 13:39:35;;;;;;;2.59;0.98;;;;;;;11.31;89.44;98871.03;2173512;69;20263;-83
2020/12/23 13:42:38;;;;;;;0.84;0.81;;;;;;;11.31;89.35;98884.03;2025282;80;20176;-83
2020/12/23 13:45:40;;;;;;;3.69;0.99;;;;;;;11.30;89.22;98892.69;2025567;80;20220;-83
2020/12/23 13:48:41;;;;;;;1.09;0.84;;;;;;;11.29;89.24;98895.31;2016102;80;20288;-80
2020/12/23 13:51:49;;;;;;;1.61;1.13;;;;;;;11.28;89.08;98880.59;2015881;80;20176;-83
2020/12/23 13:54:52;;;;;;;1.57;1.30;;;;;;;11.26;89.08;98870.25;2016274;80;20479;-81
2020/12/23 13:57:53;;;;;;;1.54;0.75;;;;;;;11.25;88.93;98885.84;2014235;80;20192;-78
2020/12/23 14:00:55;;;;;;;3.29;0.90;;;;;;;11.27;89.01;98889.28;2009603;80;20218;-79
2020/12/23 14:03:57;;;;;;;0.77;0.76;;;;;;;11.24;88.97;98877.19;2009983;80;20196;-79
2020/12/23 14:06:58;;;;;;;0.70;0.70;;;;;;;11.25;88.99;98888.47;2009817;80;20971;-78
2020/12/23 14:10:00;;;;;;;0.90;0.76;;;;;;;11.27;89.12;98890.16;2014364;80;20199;-78
2020/12/23 14:13:02;;;;;;;1.23;1.13;;;;;;;11.27;89.21;98891.88;2010468;80;21019;-79
2020/12/23 14:16:04;;;;;;;1.00;0.91;;;;;;;11.26;89.14;98901.41;2010420;80;20352;-78
2020/12/23 14:19:07;;;;;;;1.26;0.90;;;;;;;11.25;89.25;98896.25;2010658;80;20569;-78
2020/12/23 14:22:08;;;;;;;2.42;0.90;;;;;;;11.24;89.42;98891.94;2011148;80;20206;-78
2020/12/23 14:25:10;;;;;;;1.15;0.82;;;;;;;11.25;89.42;98896.25;2011497;80;20242;-79
2020/12/23 14:28:12;;;;;;;2.28;0.79;;;;;;;11.23;89.42;98898.03;2011949;80;20309;-79
2020/12/23 14:31:14;;;;;;;1.15;0.80;;;;;;;11.22;89.60;98886.75;2011101;80;20180;-78
2020/12/23 14:34:15;;;;;;;1.38;1.01;;;;;;;11.22;89.55;98889.38;2011964;80;20736;-78